Time;durP1;ratioP1;P1;durP2;ratioP2;P2;SDS_P1;SDS_P2;PMS_P1;PMS_P2;Temp;Humidity;BMP_temperature;BMP_pressure;BME280_temperature;BME280_humidity;BME280_pressure;Samples;Min_cycle;Max_cycle;Signal;HPM_P1;HPM_P2
2023/01/26 00:00:51;;;;;;;33.23;13.30;;;-0.20;99.90;;;;;;5068368;28;20994;-73
2023/01/26 00:03:18;;;;;;;31.97;13.10;;;-0.10;99.90;;;;;;5070458;28;20491;-73
2023/01/26 00:05:44;;;;;;;29.43;10.90;;;-0.20;99.90;;;;;;5063296;28;20835;-73
2023/01/26 00:08:11;;;;;;;35.13;11.93;;;-0.20;99.90;;;;;;5065077;28;20421;-73
2023/01/26 00:10:38;;;;;;;36.90;14.10;;;-0.20;99.90;;;;;;5051807;28;20855;-73
2023/01/26 00:13:04;;;;;;;28.27;12.57;;;-0.30;99.90;;;;;;5064029;28;20432;-73
2023/01/26 00:15:34;;;;;;;28.27;13.20;;;-0.20;99.90;;;;;;5049801;28;20526;-74
2023/01/26 00:18:00;;;;;;;27.70;11.63;;;-0.30;99.90;;;;;;5061495;28;20467;-73
2023/01/26 00:20:27;;;;;;;24.30;10.43;;;-0.20;99.90;;;;;;5057266;28;20432;-73
2023/01/26 00:22:53;;;;;;;30.00;12.20;;;-0.20;99.90;;;;;;5060957;28;20999;-73
2023/01/26 00:25:18;;;;;;;37.77;15.40;;;-0.20;99.90;;;;;;5069703;28;20566;-73
2023/01/26 00:27:44;;;;;;;28.23;12.63;;;-0.30;99.90;;;;;;5070028;28;20263;-73
2023/01/26 00:30:10;;;;;;;46.90;12.60;;;-0.30;99.90;;;;;;5066339;28;20427;-73
2023/01/26 00:32:36;;;;;;;18.60;10.13;;;-0.30;99.90;;;;;;5067656;28;20203;-73
2023/01/26 00:35:03;;;;;;;32.27;11.00;;;-0.20;99.90;;;;;;5069977;28;20493;-73
2023/01/26 00:37:29;;;;;;;27.97;12.10;;;-0.20;99.90;;;;;;5058425;28;20757;-73
2023/01/26 00:39:55;;;;;;;29.40;13.37;;;-0.20;99.90;;;;;;5070851;28;20885;-73
2023/01/26 00:42:22;;;;;;;26.67;10.60;;;-0.20;99.90;;;;;;5070749;28;20185;-73
2023/01/26 00:44:49;;;;;;;17.40;9.40;;;-0.20;99.90;;;;;;5070767;28;20203;-73
2023/01/26 00:47:14;;;;;;;47.23;12.67;;;-0.20;99.90;;;;;;5071167;28;20420;-73
2023/01/26 00:49:40;;;;;;;39.30;10.17;;;-0.20;99.90;;;;;;5069864;28;20489;-73
2023/01/26 00:52:06;;;;;;;30.50;11.10;;;-0.20;99.90;;;;;;5054165;28;20197;-73
2023/01/26 00:54:32;;;;;;;35.93;11.47;;;-0.20;99.90;;;;;;5064370;28;20235;-73
2023/01/26 00:56:57;;;;;;;24.73;11.47;;;-0.20;99.90;;;;;;5058206;28;20431;-73
2023/01/26 00:59:24;;;;;;;23.83;9.97;;;-0.20;99.90;;;;;;5070803;28;20446;-73
2023/01/26 01:01:50;;;;;;;31.30;12.13;;;-0.20;99.90;;;;;;5070187;28;20208;-73
2023/01/26 01:04:16;;;;;;;25.40;11.63;;;-0.20;99.90;;;;;;5070376;28;20466;-73
2023/01/26 01:06:42;;;;;;;20.80;10.20;;;-0.10;99.90;;;;;;5063410;28;20428;-73
2023/01/26 01:09:07;;;;;;;41.47;14.20;;;-0.10;99.90;;;;;;5063278;28;20205;-73
2023/01/26 01:11:34;;;;;;;26.13;10.83;;;-0.20;99.90;;;;;;5055008;28;20181;-73
2023/01/26 01:14:00;;;;;;;28.37;10.83;;;-0.20;99.90;;;;;;5069272;28;20548;-73
2023/01/26 01:16:27;;;;;;;27.93;11.00;;;-0.30;99.90;;;;;;5058298;28;20453;-73
2023/01/26 01:18:54;;;;;;;30.83;11.50;;;-0.30;99.90;;;;;;5070416;28;20181;-73
2023/01/26 01:21:21;;;;;;;26.67;10.30;;;-0.30;99.90;;;;;;5065481;28;20515;-73
2023/01/26 01:23:46;;;;;;;30.57;11.90;;;-0.40;99.90;;;;;;5049940;28;20459;-73
2023/01/26 01:26:13;;;;;;;20.43;10.07;;;-0.30;99.90;;;;;;5054200;28;20955;-73
2023/01/26 01:28:39;;;;;;;32.73;12.90;;;-0.30;99.90;;;;;;5068496;28;20766;-73
2023/01/26 01:31:07;;;;;;;36.77;12.23;;;-0.30;99.90;;;;;;5069505;28;20488;-73
2023/01/26 01:33:32;;;;;;;37.80;12.30;;;-0.30;99.90;;;;;;5071100;28;20475;-73
2023/01/26 01:36:00;;;;;;;29.03;11.27;;;-0.30;99.90;;;;;;5052347;28;20432;-73
2023/01/26 01:38:26;;;;;;;23.33;12.70;;;-0.40;99.90;;;;;;5053971;28;20182;-73
2023/01/26 01:40:53;;;;;;;27.30;11.83;;;-0.40;99.90;;;;;;5063248;28;20465;-73
2023/01/26 01:43:20;;;;;;;40.27;13.80;;;-0.40;99.90;;;;;;5060243;28;20463;-73
2023/01/26 01:45:50;;;;;;;24.43;11.10;;;-0.40;99.90;;;;;;5073833;28;20463;-73
2023/01/26 01:48:18;;;;;;;34.23;11.77;;;-0.40;99.90;;;;;;5067142;28;20420;-73
2023/01/26 01:50:44;;;;;;;29.63;11.83;;;-0.40;99.90;;;;;;5063999;28;20465;-73
2023/01/26 01:53:17;;;;;;;30.50;12.20;;;-0.40;99.90;;;;;;5073577;28;20423;-73
2023/01/26 01:55:44;;;;;;;25.53;11.17;;;-0.30;99.90;;;;;;5062326;28;20463;-73
2023/01/26 01:58:11;;;;;;;40.90;13.20;;;-0.40;99.90;;;;;;5067211;28;20454;-73
2023/01/26 02:00:37;;;;;;;39.90;11.30;;;-0.30;99.90;;;;;;5068663;28;20430;-74
2023/01/26 02:03:13;;;;;;;36.73;11.57;;;-0.40;99.90;;;;;;5071297;28;20459;-73
2023/01/26 02:06:01;;;;;;;36.30;12.00;;;-0.30;99.90;;;;;;5073429;28;20212;-74
2023/01/26 02:08:32;;;;;;;19.50;10.57;;;-0.40;99.90;;;;;;5053736;28;20408;-73
2023/01/26 02:11:03;;;;;;;22.13;10.23;;;-0.40;99.90;;;;;;5069984;28;20415;-74
2023/01/26 02:13:30;;;;;;;24.80;10.60;;;-0.40;99.90;;;;;;5053075;28;20904;-73
2023/01/26 02:15:58;;;;;;;23.93;10.83;;;-0.40;99.90;;;;;;5056854;28;20422;-73
2023/01/26 02:18:23;;;;;;;27.30;10.70;;;-0.30;99.90;;;;;;5062904;28;20763;-73
2023/01/26 02:21:01;;;;;;;25.57;10.20;;;-0.30;99.90;;;;;;5058785;28;20423;-73
2023/01/26 02:23:49;;;;;;;26.30;10.03;;;-0.40;99.90;;;;;;5073059;28;20243;-73
2023/01/26 02:26:21;;;;;;;20.33;8.97;;;-0.30;99.90;;;;;;5061766;28;20457;-74
2023/01/26 02:28:47;;;;;;;23.33;10.07;;;-0.30;99.90;;;;;;5057263;28;20903;-73
2023/01/26 02:31:14;;;;;;;23.40;10.63;;;-0.30;99.90;;;;;;5062409;28;20427;-73
2023/01/26 02:33:40;;;;;;;20.20;9.50;;;-0.20;99.90;;;;;;5059415;28;20427;-73
2023/01/26 02:36:09;;;;;;;21.63;9.10;;;-0.20;99.90;;;;;;5071770;28;20571;-73
2023/01/26 02:38:39;;;;;;;18.23;7.00;;;-0.20;99.90;;;;;;5073270;28;20419;-73
2023/01/26 02:41:09;;;;;;;26.87;10.47;;;-0.20;99.90;;;;;;5073159;28;20521;-73
2023/01/26 02:43:35;;;;;;;28.83;9.60;;;-0.20;99.90;;;;;;5072128;28;20491;-73
2023/01/26 02:46:01;;;;;;;25.47;10.93;;;-0.20;99.90;;;;;;5072181;28;20444;-74
2023/01/26 02:51:10;;;;;;;20.43;9.10;;;-0.20;99.90;;;;;;5063610;28;20218;-74
2023/01/26 02:53:36;;;;;;;28.00;9.30;;;-0.30;99.90;;;;;;5072390;28;21100;-73
2023/01/26 02:56:02;;;;;;;25.67;9.47;;;-0.30;99.90;;;;;;5059993;28;20197;-73
2023/01/26 02:58:27;;;;;;;26.93;10.17;;;-0.30;99.90;;;;;;5058681;28;20283;-73
2023/01/26 03:00:53;;;;;;;29.87;9.10;;;-0.30;99.90;;;;;;5072433;28;20550;-73
2023/01/26 03:03:23;;;;;;;20.97;9.27;;;-0.30;99.90;;;;;;5066076;28;20294;-73
2023/01/26 03:05:49;;;;;;;24.67;10.90;;;-0.30;99.90;;;;;;5052454;28;20204;-73
2023/01/26 03:08:15;;;;;;;22.57;9.63;;;-0.30;99.90;;;;;;5066045;28;20428;-73
2023/01/26 03:10:41;;;;;;;23.77;9.20;;;-0.30;99.90;;;;;;5064472;28;20419;-73
2023/01/26 03:13:06;;;;;;;39.13;11.20;;;-0.30;99.90;;;;;;5062925;28;20182;-73
2023/01/26 03:15:41;;;;;;;21.33;9.73;;;-0.30;99.90;;;;;;5072038;28;21058;-73
2023/01/26 03:29:19;;;;;;;18.20;8.43;;;-0.30;99.90;;;;;;5070593;28;20410;-73
2023/01/26 03:31:45;;;;;;;23.70;9.57;;;-0.20;99.90;;;;;;5070798;28;21020;-73
2023/01/26 03:34:10;;;;;;;28.80;9.20;;;-0.20;99.90;;;;;;5064895;28;20190;-73
2023/01/26 03:36:36;;;;;;;22.30;9.03;;;-0.20;99.90;;;;;;5064754;28;20191;-73
2023/01/26 03:39:03;;;;;;;28.20;9.77;;;-0.20;99.90;;;;;;5065126;28;20200;-73
2023/01/26 03:57:53;;;;;;;18.53;9.03;;;-0.20;99.90;;;;;;5053050;28;20836;-73
2023/01/26 04:00:20;;;;;;;18.70;7.80;;;-0.20;99.90;;;;;;5071382;28;20928;-73
2023/01/26 04:08:23;;;;;;;22.07;8.80;;;-0.30;99.90;;;;;;5051910;28;20764;-73
2023/01/26 04:10:53;;;;;;;25.13;8.80;;;-0.30;99.90;;;;;;5051624;28;20419;-73
2023/01/26 04:21:35;;;;;;;19.90;8.67;;;-0.40;99.90;;;;;;5057700;28;20902;-73
2023/01/26 04:24:14;;;;;;;18.53;8.87;;;-0.40;99.90;;;;;;5067812;28;20464;-73
2023/01/26 04:26:41;;;;;;;25.03;9.87;;;-0.40;99.90;;;;;;5062776;28;20415;-73
2023/01/26 04:29:11;;;;;;;29.07;7.10;;;-0.40;99.90;;;;;;5052328;28;20447;-73
2023/01/26 04:31:38;;;;;;;16.00;7.00;;;-0.40;99.90;;;;;;5063404;28;20435;-73
2023/01/26 04:34:05;;;;;;;19.50;6.60;;;-0.40;99.90;;;;;;5070683;28;20419;-73
2023/01/26 04:36:31;;;;;;;19.67;8.93;;;-0.40;99.90;;;;;;5058335;28;20519;-73
2023/01/26 04:38:56;;;;;;;28.13;8.87;;;-0.40;99.90;;;;;;5051176;28;20416;-73
2023/01/26 04:41:23;;;;;;;20.53;9.87;;;-0.40;99.90;;;;;;5063364;28;20193;-73
2023/01/26 04:43:48;;;;;;;22.10;9.33;;;-0.40;99.90;;;;;;5051268;28;20209;-73
2023/01/26 04:46:14;;;;;;;14.77;7.67;;;-0.40;99.90;;;;;;5063336;28;20423;-73
2023/01/26 04:48:40;;;;;;;19.07;8.50;;;-0.40;99.90;;;;;;5057698;28;20181;-72
2023/01/26 04:51:10;;;;;;;22.40;11.37;;;-0.40;99.90;;;;;;5061058;28;20192;-73
2023/01/26 04:53:36;;;;;;;40.50;18.37;;;-0.40;99.90;;;;;;5057696;28;20428;-74
2023/01/26 04:56:02;;;;;;;21.80;11.27;;;-0.40;99.90;;;;;;5070976;28;20423;-73
2023/01/26 04:58:27;;;;;;;16.37;7.87;;;-0.50;99.90;;;;;;5050799;28;20205;-73
2023/01/26 05:00:55;;;;;;;24.13;9.20;;;-0.50;99.90;;;;;;5066310;28;20185;-73
2023/01/26 05:03:22;;;;;;;17.83;6.90;;;-0.50;99.90;;;;;;5063713;28;20326;-73
2023/01/26 05:05:49;;;;;;;13.63;6.80;;;-0.50;99.90;;;;;;5051414;28;20428;-73
2023/01/26 05:08:15;;;;;;;30.27;9.50;;;-0.50;99.90;;;;;;5068287;28;20424;-72
2023/01/26 05:10:41;;;;;;;25.77;8.63;;;-0.50;99.90;;;;;;5056364;28;20896;-73
2023/01/26 05:13:07;;;;;;;18.23;7.83;;;-0.50;99.90;;;;;;5067079;28;20554;-72
2023/01/26 05:15:33;;;;;;;15.57;7.37;;;-0.50;99.90;;;;;;5056034;28;20193;-72
2023/01/26 05:17:59;;;;;;;17.80;7.70;;;-0.50;99.90;;;;;;5072769;28;20446;-72
2023/01/26 05:20:25;;;;;;;16.80;7.53;;;-0.50;99.90;;;;;;5074302;28;20200;-72
2023/01/26 05:22:51;;;;;;;28.50;8.33;;;-0.60;99.90;;;;;;5062701;28;20422;-72
2023/01/26 05:25:16;;;;;;;19.40;7.97;;;-0.50;99.90;;;;;;5074848;28;20275;-72
2023/01/26 05:27:42;;;;;;;13.20;6.50;;;-0.60;99.90;;;;;;5068200;28;20226;-72
2023/01/26 05:30:09;;;;;;;19.37;9.03;;;-0.60;99.90;;;;;;5059408;28;20186;-72
2023/01/26 05:32:34;;;;;;;15.60;8.20;;;-0.60;99.90;;;;;;5065601;28;20405;-72
2023/01/26 05:35:00;;;;;;;13.77;7.23;;;-0.60;99.90;;;;;;5053783;28;20416;-72
2023/01/26 05:37:27;;;;;;;13.90;6.37;;;-0.60;99.90;;;;;;5053485;28;20193;-72
2023/01/26 05:39:53;;;;;;;12.23;5.47;;;-0.60;99.90;;;;;;5054349;28;20192;-72
2023/01/26 05:42:19;;;;;;;17.80;6.77;;;-0.60;99.90;;;;;;5061138;28;20519;-72
2023/01/26 05:44:45;;;;;;;13.90;6.13;;;-0.60;99.90;;;;;;5066960;28;20546;-72
2023/01/26 05:47:11;;;;;;;14.67;6.10;;;-0.60;99.90;;;;;;5057813;28;20407;-72
2023/01/26 05:49:41;;;;;;;11.13;5.43;;;-0.60;99.90;;;;;;5060980;28;20197;-72
2023/01/26 05:52:12;;;;;;;13.00;6.27;;;-0.60;99.90;;;;;;5073832;28;20201;-72
2023/01/26 05:54:37;;;;;;;14.40;6.20;;;-0.70;99.90;;;;;;5072324;28;20426;-72
2023/01/26 05:57:03;;;;;;;13.50;6.57;;;-0.70;99.90;;;;;;5062413;28;20434;-72
2023/01/26 05:59:29;;;;;;;33.53;7.87;;;-0.70;99.90;;;;;;5073263;28;20193;-72
2023/01/26 06:01:58;;;;;;;15.53;7.07;;;-0.70;99.90;;;;;;5064760;28;20654;-72
2023/01/26 06:04:24;;;;;;;11.50;6.10;;;-0.70;99.90;;;;;;5066641;28;20707;-72
2023/01/26 06:06:54;;;;;;;22.13;9.90;;;-0.70;99.90;;;;;;5053547;28;20455;-72
2023/01/26 06:09:20;;;;;;;13.10;5.47;;;-0.70;99.90;;;;;;5069980;28;20169;-72
2023/01/26 06:11:46;;;;;;;15.97;7.07;;;-0.70;99.90;;;;;;5065368;28;20830;-72
2023/01/26 06:14:12;;;;;;;15.83;7.17;;;-0.70;99.90;;;;;;5054989;28;20806;-72
2023/01/26 06:16:37;;;;;;;16.10;6.83;;;-0.70;99.90;;;;;;5063178;28;20177;-72
2023/01/26 06:19:03;;;;;;;36.93;13.90;;;-0.70;99.90;;;;;;5059061;28;20455;-72
2023/01/26 06:21:30;;;;;;;20.53;7.37;;;-0.70;99.90;;;;;;5072937;28;20189;-72
2023/01/26 06:23:56;;;;;;;16.03;6.17;;;-0.70;99.90;;;;;;5072333;28;20212;-72
2023/01/26 06:26:23;;;;;;;11.17;5.67;;;-0.70;99.90;;;;;;5074477;28;20469;-72
2023/01/26 06:28:49;;;;;;;18.03;7.03;;;-0.70;99.90;;;;;;5075779;28;20177;-73
2023/01/26 06:31:15;;;;;;;14.10;6.90;;;-0.70;99.90;;;;;;5076600;28;20935;-72
2023/01/26 06:33:41;;;;;;;18.63;8.13;;;-0.60;99.90;;;;;;5065329;28;20432;-72
2023/01/26 06:36:09;;;;;;;11.17;6.17;;;-0.70;99.90;;;;;;5075839;28;20915;-73
2023/01/26 06:38:35;;;;;;;13.90;6.50;;;-0.70;99.90;;;;;;5089638;28;20188;-72
2023/01/26 06:41:02;;;;;;;9.50;5.57;;;-0.70;99.90;;;;;;5086611;28;20446;-73
2023/01/26 06:43:29;;;;;;;11.97;5.73;;;-0.70;99.90;;;;;;5092696;28;20484;-74
2023/01/26 06:45:58;;;;;;;16.73;6.03;;;-0.70;99.90;;;;;;5093124;28;20493;-74
2023/01/26 06:48:25;;;;;;;12.23;6.10;;;-0.70;99.90;;;;;;5084121;28;20418;-74
2023/01/26 06:50:51;;;;;;;15.83;6.53;;;-0.70;99.90;;;;;;5093275;28;20936;-74
2023/01/26 06:53:38;;;;;;;10.40;6.20;;;-0.70;99.90;;;;;;5062200;28;20704;-74
2023/01/26 06:56:04;;;;;;;14.53;6.47;;;-0.70;99.90;;;;;;5087256;28;20410;-75
2023/01/26 06:58:30;;;;;;;15.17;7.00;;;-0.70;99.90;;;;;;5093493;28;20554;-75
2023/01/26 07:00:56;;;;;;;12.33;6.43;;;-0.70;99.90;;;;;;5093204;28;20417;-74
2023/01/26 07:03:22;;;;;;;16.23;6.57;;;-0.70;99.90;;;;;;5086168;28;20201;-74
2023/01/26 07:05:47;;;;;;;15.33;7.27;;;-0.70;99.90;;;;;;5086807;28;20208;-75
2023/01/26 07:08:13;;;;;;;18.13;7.40;;;-0.70;99.90;;;;;;5086417;28;20522;-75
2023/01/26 07:10:38;;;;;;;18.53;8.90;;;-0.70;99.90;;;;;;5064814;28;20283;-74
2023/01/26 07:13:05;;;;;;;19.00;6.93;;;-0.70;99.90;;;;;;5057996;28;20861;-74
2023/01/26 07:15:30;;;;;;;19.40;6.93;;;-0.70;99.90;;;;;;5079032;28;20180;-74
2023/01/26 07:17:57;;;;;;;22.03;9.63;;;-0.70;99.90;;;;;;5086033;28;20415;-74
2023/01/26 07:20:23;;;;;;;22.00;9.27;;;-0.70;99.90;;;;;;5076718;28;20187;-74
2023/01/26 07:22:49;;;;;;;20.20;10.00;;;-0.70;99.90;;;;;;5075993;28;20415;-74
2023/01/26 07:25:16;;;;;;;22.00;9.03;;;-0.80;99.90;;;;;;5072681;28;20438;-74
2023/01/26 07:27:41;;;;;;;17.30;7.30;;;-0.80;99.90;;;;;;5084022;28;20430;-74
2023/01/26 07:30:08;;;;;;;20.50;8.83;;;-0.80;99.90;;;;;;5051283;28;20469;-74
2023/01/26 07:32:34;;;;;;;19.93;6.93;;;-0.70;99.90;;;;;;5055907;28;20185;-74
2023/01/26 07:34:59;;;;;;;13.83;6.80;;;-0.70;99.90;;;;;;5092116;28;20446;-74
2023/01/26 07:37:29;;;;;;;19.23;7.43;;;-0.70;99.90;;;;;;5088950;28;20212;-74
2023/01/26 07:39:55;;;;;;;24.23;8.30;;;-0.70;99.90;;;;;;5053429;28;20174;-74
2023/01/26 07:42:20;;;;;;;24.00;7.63;;;-0.70;99.90;;;;;;5087505;28;20745;-74
2023/01/26 07:44:46;;;;;;;30.37;7.93;;;-0.70;99.90;;;;;;5083122;28;20205;-75
2023/01/26 07:47:13;;;;;;;17.50;8.00;;;-0.60;99.90;;;;;;5086308;28;20181;-75
2023/01/26 07:49:39;;;;;;;20.90;8.10;;;-0.60;99.90;;;;;;5092210;28;20180;-75
2023/01/26 07:52:05;;;;;;;16.00;7.90;;;-0.60;99.90;;;;;;5065320;28;20784;-75
2023/01/26 07:54:31;;;;;;;18.00;8.73;;;-0.60;99.90;;;;;;5074094;28;20188;-75
2023/01/26 07:56:56;;;;;;;17.40;7.87;;;-0.60;99.90;;;;;;5083508;28;20439;-75
2023/01/26 07:59:22;;;;;;;19.00;7.60;;;-0.60;99.90;;;;;;5087102;28;20189;-75
2023/01/26 08:01:49;;;;;;;18.13;8.20;;;-0.70;99.90;;;;;;5073515;28;20169;-74
2023/01/26 08:04:15;;;;;;;15.13;7.30;;;-0.60;99.90;;;;;;5082674;28;20467;-75
2023/01/26 08:06:41;;;;;;;21.90;9.07;;;-0.60;99.90;;;;;;5081684;28;20866;-75
2023/01/26 08:09:06;;;;;;;13.73;6.87;;;-0.70;99.90;;;;;;5074323;28;20181;-75
2023/01/26 08:11:32;;;;;;;14.27;7.40;;;-0.60;99.90;;;;;;5071577;28;20211;-75
2023/01/26 08:13:58;;;;;;;25.20;8.17;;;-0.70;99.90;;;;;;5085829;28;20184;-75
2023/01/26 08:16:23;;;;;;;22.60;7.73;;;-0.70;99.90;;;;;;5076485;28;20434;-75
2023/01/26 08:18:49;;;;;;;18.40;7.60;;;-0.70;99.90;;;;;;5082491;28;20200;-75
2023/01/26 08:21:16;;;;;;;23.70;7.73;;;-0.70;99.90;;;;;;5063869;28;20189;-75
2023/01/26 08:23:42;;;;;;;16.97;8.30;;;-0.70;99.90;;;;;;5065531;28;20847;-75
2023/01/26 08:26:11;;;;;;;17.40;8.77;;;-0.70;99.90;;;;;;5091475;28;20425;-75
2023/01/26 08:28:37;;;;;;;26.47;8.93;;;-0.80;99.90;;;;;;5063677;28;20182;-75
2023/01/26 08:31:12;;;;;;;18.17;8.53;;;-0.80;99.90;;;;;;5077821;28;20604;-75
2023/01/26 08:33:39;;;;;;;18.90;7.73;;;-0.70;99.90;;;;;;5090516;28;20179;-75
2023/01/26 08:36:07;;;;;;;15.50;7.53;;;-0.70;99.90;;;;;;5064964;28;20423;-75
2023/01/26 08:38:33;;;;;;;18.17;6.83;;;-0.70;99.90;;;;;;5087674;28;20958;-75
2023/01/26 08:41:00;;;;;;;15.60;7.83;;;-0.70;99.90;;;;;;5076737;28;20428;-75
2023/01/26 08:43:26;;;;;;;13.70;6.40;;;-0.70;99.90;;;;;;5080625;28;20463;-75
2023/01/26 08:45:52;;;;;;;20.43;8.20;;;-0.70;99.90;;;;;;5080976;28;20519;-75
2023/01/26 08:48:18;;;;;;;14.67;7.90;;;-0.70;99.90;;;;;;5084471;28;20509;-75
2023/01/26 08:50:44;;;;;;;12.17;5.50;;;-0.70;99.90;;;;;;5090971;28;20461;-75
2023/01/26 08:53:09;;;;;;;16.27;7.80;;;-0.70;99.90;;;;;;5076142;28;20657;-75
2023/01/26 08:55:35;;;;;;;15.10;6.53;;;-0.70;99.90;;;;;;5075806;28;20507;-75
2023/01/26 08:58:01;;;;;;;14.03;6.80;;;-0.70;99.90;;;;;;5087142;28;20203;-75
2023/01/26 09:00:27;;;;;;;11.50;5.33;;;-0.70;99.90;;;;;;5076971;28;20177;-75
2023/01/26 09:03:00;;;;;;;17.80;6.93;;;-0.70;99.90;;;;;;5072719;28;20184;-75
2023/01/26 09:05:27;;;;;;;16.97;8.47;;;-0.70;99.90;;;;;;5080833;28;20192;-75
2023/01/26 09:07:53;;;;;;;17.60;7.23;;;-0.80;99.90;;;;;;5075121;28;20995;-75
2023/01/26 09:10:18;;;;;;;16.23;7.00;;;-0.80;99.90;;;;;;5091265;28;20438;-76
2023/01/26 09:12:44;;;;;;;23.70;7.87;;;-0.80;99.90;;;;;;5062807;28;20212;-75
2023/01/26 09:15:10;;;;;;;18.80;7.83;;;-0.70;99.90;;;;;;5065339;28;20185;-73
2023/01/26 09:17:36;;;;;;;15.90;6.90;;;-0.80;99.90;;;;;;5064763;28;20292;-72
2023/01/26 09:20:03;;;;;;;23.93;8.33;;;-0.80;99.90;;;;;;5081887;28;20422;-81
2023/01/26 09:22:29;;;;;;;15.73;7.60;;;-0.80;99.90;;;;;;5072030;28;20177;-81
2023/01/26 09:24:55;;;;;;;22.20;8.47;;;-0.90;99.90;;;;;;5067763;28;20471;-80
2023/01/26 09:27:21;;;;;;;19.97;7.83;;;-0.80;99.90;;;;;;5063084;28;20841;-81
2023/01/26 09:29:46;;;;;;;18.67;6.63;;;-0.80;99.90;;;;;;5060941;28;20528;-70
2023/01/26 09:32:12;;;;;;;15.30;8.17;;;-0.80;99.90;;;;;;5062733;28;20181;-70
2023/01/26 09:34:37;;;;;;;20.50;7.17;;;-0.90;99.90;;;;;;5057127;28;20196;-71
2023/01/26 09:37:06;;;;;;;12.87;6.50;;;-0.90;99.90;;;;;;5066129;28;20268;-71
2023/01/26 09:39:32;;;;;;;17.10;7.00;;;-0.90;99.90;;;;;;5065118;28;20181;-75
2023/01/26 09:42:16;;;;;;;17.07;7.73;;;-0.90;99.90;;;;;;5071393;28;20425;-76
2023/01/26 09:45:02;;;;;;;24.70;10.00;;;-0.90;99.90;;;;;;5068983;28;20201;-76
2023/01/26 09:47:35;;;;;;;13.17;5.47;;;-0.80;99.90;;;;;;5070127;28;20518;-76
2023/01/26 09:50:16;;;;;;;18.70;6.50;;;-0.80;99.90;;;;;;5069856;28;20461;-76
2023/01/26 09:52:53;;;;;;;14.83;5.43;;;-0.80;99.90;;;;;;5067838;28;20912;-76
2023/01/26 09:55:21;;;;;;;10.80;5.20;;;-0.80;99.90;;;;;;5073486;28;20419;-75
2023/01/26 09:57:58;;;;;;;13.80;5.70;;;-0.80;99.90;;;;;;5081527;28;20525;-75
2023/01/26 10:00:43;;;;;;;12.90;6.37;;;-0.90;99.90;;;;;;5073681;28;20900;-76
2023/01/26 10:03:24;;;;;;;13.57;5.10;;;-0.90;99.90;;;;;;5065814;28;20562;-76
2023/01/26 10:05:53;;;;;;;16.60;6.20;;;-0.90;99.90;;;;;;5085213;28;20423;-76
2023/01/26 10:08:22;;;;;;;11.83;6.20;;;-0.90;99.90;;;;;;5095040;28;20410;-76
2023/01/26 10:10:53;;;;;;;13.40;5.67;;;-0.90;99.90;;;;;;5089911;28;20415;-76
2023/01/26 10:13:20;;;;;;;14.50;5.70;;;-0.90;99.90;;;;;;5064371;28;20533;-76
2023/01/26 10:16:08;;;;;;;12.33;5.70;;;-0.90;99.90;;;;;;5086376;28;20426;-76
2023/01/26 10:18:49;;;;;;;15.83;5.27;;;-0.80;99.90;;;;;;5086828;28;20451;-76
2023/01/26 10:21:19;;;;;;;11.27;4.63;;;-0.80;99.90;;;;;;5094454;28;20755;-76
2023/01/26 10:23:47;;;;;;;12.60;5.20;;;-0.80;99.90;;;;;;5087010;28;20453;-76
2023/01/26 10:26:15;;;;;;;10.47;4.57;;;-0.80;99.90;;;;;;5078913;28;20474;-76
2023/01/26 10:28:43;;;;;;;6.10;3.00;;;-0.80;99.90;;;;;;5082471;28;20757;-76
2023/01/26 10:31:14;;;;;;;8.20;4.30;;;-0.70;99.90;;;;;;5087136;28;20840;-76
2023/01/26 10:33:50;;;;;;;9.03;4.07;;;-0.70;99.90;;;;;;5060286;28;20416;-76
2023/01/26 10:36:16;;;;;;;9.63;3.97;;;-0.70;99.90;;;;;;5083208;28;20437;-76
2023/01/26 10:38:43;;;;;;;12.07;4.20;;;-0.70;99.90;;;;;;5080833;28;20907;-76
2023/01/26 10:41:17;;;;;;;5.80;3.47;;;-0.60;99.90;;;;;;5094375;28;20180;-75
2023/01/26 10:43:55;;;;;;;7.57;3.57;;;-0.50;99.90;;;;;;5080505;28;20450;-76
2023/01/26 10:46:46;;;;;;;7.80;2.93;;;-0.60;99.90;;;;;;5069494;28;20913;-76
2023/01/26 10:49:11;;;;;;;13.20;3.63;;;-0.60;99.90;;;;;;5069915;28;20442;-76
2023/01/26 10:51:39;;;;;;;7.53;3.33;;;-0.60;99.90;;;;;;5093324;28;20410;-76
2023/01/26 10:54:13;;;;;;;5.77;3.47;;;-0.60;99.90;;;;;;5094196;28;20180;-76
2023/01/26 10:57:01;;;;;;;9.03;4.10;;;-0.60;99.90;;;;;;5093889;28;20531;-76
2023/01/26 10:59:31;;;;;;;6.40;4.40;;;-0.70;99.90;;;;;;5081501;28;20922;-76
2023/01/26 11:02:19;;;;;;;9.40;3.80;;;-0.60;99.90;;;;;;5079537;28;20415;-76
2023/01/26 11:05:01;;;;;;;8.37;3.63;;;-0.60;99.90;;;;;;5071229;28;20481;-76
2023/01/26 11:07:31;;;;;;;8.63;3.97;;;-0.70;99.90;;;;;;5093997;28;20411;-76
2023/01/26 11:10:14;;;;;;;12.70;5.20;;;-0.70;99.90;;;;;;5079921;28;20413;-76
2023/01/26 11:12:40;;;;;;;12.30;5.13;;;-0.70;99.90;;;;;;5080023;28;20453;-76
2023/01/26 11:15:14;;;;;;;18.57;6.20;;;-0.70;99.90;;;;;;5069398;28;21123;-76
2023/01/26 11:17:59;;;;;;;10.27;4.50;;;-0.90;99.90;;;;;;5073604;28;20190;-76
2023/01/26 11:20:45;;;;;;;9.27;4.93;;;-0.90;99.90;;;;;;5068486;28;20403;-77
2023/01/26 11:23:38;;;;;;;15.17;6.03;;;-0.90;99.90;;;;;;5082923;28;20999;-76
2023/01/26 11:26:34;;;;;;;11.87;4.83;;;-0.90;99.90;;;;;;5067304;28;20419;-76
2023/01/26 11:29:23;;;;;;;24.87;8.17;;;-0.90;99.90;;;;;;5076025;28;20450;-76
2023/01/26 11:32:07;;;;;;;16.60;5.20;;;-0.90;99.90;;;;;;5081804;28;20764;-76
2023/01/26 11:34:47;;;;;;;10.97;4.90;;;-0.90;99.90;;;;;;5082840;28;20427;-76
2023/01/26 11:37:50;;;;;;;12.90;5.70;;;-0.90;99.90;;;;;;5060337;28;20415;-76
2023/01/26 11:40:31;;;;;;;7.23;4.47;;;-1.00;99.90;;;;;;5089537;28;20773;-76
2023/01/26 11:43:18;;;;;;;12.47;4.87;;;-1.00;99.90;;;;;;5080952;28;20407;-76
2023/01/26 11:46:24;;;;;;;16.70;5.60;;;-1.00;99.90;;;;;;5064570;28;20954;-75
2023/01/26 11:49:17;;;;;;;10.13;5.67;;;-1.00;99.90;;;;;;5060031;28;20730;-75
2023/01/26 11:52:08;;;;;;;16.87;8.00;;;-1.00;99.90;;;;;;5076007;28;20425;-75
2023/01/26 11:54:46;;;;;;;11.07;5.57;;;-1.00;99.90;;;;;;5077839;28;20408;-76
2023/01/26 11:57:34;;;;;;;10.53;5.20;;;-1.00;99.90;;;;;;5070856;28;20982;-76
2023/01/26 12:00:12;;;;;;;12.60;6.37;;;-1.10;99.90;;;;;;5092582;28;20414;-76
2023/01/26 12:02:40;;;;;;;14.27;4.77;;;-1.00;99.90;;;;;;5080147;28;20411;-76
2023/01/26 12:05:21;;;;;;;13.03;5.37;;;-1.00;99.90;;;;;;5092480;28;20454;-75
2023/01/26 12:07:56;;;;;;;9.47;4.53;;;-1.00;99.90;;;;;;5065475;28;20429;-75
2023/01/26 12:10:35;;;;;;;13.03;5.43;;;-0.90;99.90;;;;;;5091812;28;20446;-71
2023/01/26 12:13:09;;;;;;;12.53;6.87;;;-1.00;99.90;;;;;;5073339;28;20433;-75
2023/01/26 12:15:38;;;;;;;25.67;6.53;;;-1.00;99.90;;;;;;5091121;28;20413;-75
2023/01/26 12:18:21;;;;;;;23.73;7.30;;;-1.00;99.90;;;;;;5081829;28;20434;-75
2023/01/26 12:20:55;;;;;;;18.67;5.90;;;-0.90;99.90;;;;;;5073465;28;20419;-75
2023/01/26 12:23:33;;;;;;;12.03;5.93;;;-1.00;99.90;;;;;;5084124;28;20548;-75
2023/01/26 12:26:06;;;;;;;13.80;6.07;;;-1.00;99.90;;;;;;5068743;28;20435;-75
2023/01/26 12:29:10;;;;;;;14.00;6.50;;;-1.00;99.90;;;;;;5072135;28;20471;-75
2023/01/26 12:31:59;;;;;;;16.87;6.37;;;-1.00;99.90;;;;;;5077163;28;20422;-76
2023/01/26 12:34:31;;;;;;;12.50;5.33;;;-0.90;99.90;;;;;;5056064;28;20416;-75
2023/01/26 12:37:27;;;;;;;16.70;6.03;;;-0.90;99.90;;;;;;5066857;28;20527;-75
2023/01/26 12:40:14;;;;;;;15.63;6.80;;;-0.90;99.90;;;;;;5056479;28;20408;-75
2023/01/26 12:42:55;;;;;;;17.10;5.23;;;-0.90;99.90;;;;;;5063640;28;20438;-76
2023/01/26 12:45:28;;;;;;;10.00;4.90;;;-0.90;99.90;;;;;;5058421;28;20458;-77
2023/01/26 12:48:24;;;;;;;11.70;6.50;;;-0.90;99.90;;;;;;5058935;28;20885;-75
2023/01/26 12:51:04;;;;;;;10.20;5.17;;;-0.90;99.90;;;;;;5051548;28;21196;-74
2023/01/26 12:53:41;;;;;;;13.70;5.50;;;-0.90;99.90;;;;;;5070691;28;20516;-75
2023/01/26 12:56:20;;;;;;;10.27;5.27;;;-0.90;99.90;;;;;;5071427;28;20414;-74
2023/01/26 12:58:48;;;;;;;12.00;5.60;;;-0.90;99.90;;;;;;5072585;28;20481;-74
2023/01/26 13:01:16;;;;;;;13.83;6.60;;;-0.90;99.90;;;;;;5072091;28;20422;-74
2023/01/26 13:03:43;;;;;;;12.43;5.00;;;-0.80;99.90;;;;;;5062376;28;20463;-75
2023/01/26 13:06:09;;;;;;;17.87;5.67;;;-0.80;99.90;;;;;;5064227;28;20882;-75
2023/01/26 13:08:34;;;;;;;10.63;5.17;;;-0.80;99.90;;;;;;5067494;28;20416;-75
2023/01/26 13:11:05;;;;;;;16.00;6.80;;;-0.80;99.90;;;;;;5074982;28;20181;-75
2023/01/26 13:13:54;;;;;;;15.60;6.47;;;-0.90;99.90;;;;;;5077992;28;20197;-75
2023/01/26 13:16:19;;;;;;;19.00;6.47;;;-0.90;99.90;;;;;;5071685;28;20423;-75
2023/01/26 13:18:53;;;;;;;14.30;6.63;;;-0.90;99.90;;;;;;5085575;28;20438;-75
2023/01/26 13:21:37;;;;;;;14.30;6.40;;;-1.00;99.90;;;;;;5074707;28;20272;-75
2023/01/26 13:24:15;;;;;;;17.90;5.90;;;-1.00;99.90;;;;;;5084850;28;20490;-75
2023/01/26 13:26:44;;;;;;;20.10;7.73;;;-1.00;99.90;;;;;;5077971;28;20429;-75
2023/01/26 13:29:27;;;;;;;13.97;6.70;;;-1.20;99.90;;;;;;5077732;28;20423;-76
2023/01/26 13:31:55;;;;;;;12.67;5.43;;;-1.00;99.90;;;;;;5075835;28;20418;-76
2023/01/26 13:34:45;;;;;;;13.47;6.10;;;-1.00;99.90;;;;;;5072261;28;20525;-76